sensor_id;sensor_type;location;lat;lon;timestamp;pressure;altitude;pressure_sealevel;temperature;humidity
58690;BME280;44470;53.206;-6.106;2022-10-31T00:00:49;100573.50;;;21.79;56.64
58690;BME280;44470;53.206;-6.106;2022-10-31T00:03:16;100568.16;;;21.79;56.60
58690;BME280;44470;53.206;-6.106;2022-10-31T00:05:48;100549.63;;;21.71;56.71
58690;BME280;44470;53.206;-6.106;2022-10-31T00:08:18;100562.59;;;21.85;56.38
58690;BME280;44470;53.206;-6.106;2022-10-31T00:10:45;100555.59;;;21.81;56.49
58690;BME280;44470;53.206;-6.106;2022-10-31T00:13:12;100550.41;;;21.75;56.58
58690;BME280;44470;53.206;-6.106;2022-10-31T00:15:39;100555.81;;;21.73;56.58
58690;BME280;44470;53.206;-6.106;2022-10-31T00:18:07;100553.63;;;21.86;56.33
58690;BME280;44470;53.206;-6.106;2022-10-31T00:20:33;100559.75;;;21.90;56.15
58690;BME280;44470;53.206;-6.106;2022-10-31T00:23:02;100563.56;;;21.83;56.72
58690;BME280;44470;53.206;-6.106;2022-10-31T00:25:32;100573.50;;;21.79;56.46
58690;BME280;44470;53.206;-6.106;2022-10-31T00:27:58;100577.69;;;21.88;56.31
58690;BME280;44470;53.206;-6.106;2022-10-31T00:30:23;100576.19;;;21.79;56.39
58690;BME280;44470;53.206;-6.106;2022-10-31T00:32:49;100579.81;;;21.76;56.25
58690;BME280;44470;53.206;-6.106;2022-10-31T00:35:16;100585.88;;;21.83;56.41
58690;BME280;44470;53.206;-6.106;2022-10-31T00:37:44;100573.41;;;21.82;56.21
58690;BME280;44470;53.206;-6.106;2022-10-31T00:40:10;100580.38;;;21.88;56.10
58690;BME280;44470;53.206;-6.106;2022-10-31T00:42:36;100573.31;;;21.85;56.24
58690;BME280;44470;53.206;-6.106;2022-10-31T00:45:01;100585.88;;;21.83;56.40
58690;BME280;44470;53.206;-6.106;2022-10-31T00:47:27;100578.88;;;21.79;56.10
58690;BME280;44470;53.206;-6.106;2022-10-31T00:49:52;100578.66;;;21.85;56.41
58690;BME280;44470;53.206;-6.106;2022-10-31T00:52:19;100567.38;;;21.74;56.27
58690;BME280;44470;53.206;-6.106;2022-10-31T00:54:44;100579.59;;;21.84;56.50
58690;BME280;44470;53.206;-6.106;2022-10-31T00:57:10;100584.03;;;21.85;56.18
58690;BME280;44470;53.206;-6.106;2022-10-31T00:59:35;100576.09;;;21.82;55.98
58690;BME280;44470;53.206;-6.106;2022-10-31T01:02:01;100566.28;;;21.81;56.25
58690;BME280;44470;53.206;-6.106;2022-10-31T01:04:26;100562.78;;;21.79;56.32
58690;BME280;44470;53.206;-6.106;2022-10-31T01:06:52;100556.84;;;21.68;56.33
58690;BME280;44470;53.206;-6.106;2022-10-31T01:09:17;100568.16;;;21.79;56.32
58690;BME280;44470;53.206;-6.106;2022-10-31T01:11:43;100564.44;;;21.83;56.20
58690;BME280;44470;53.206;-6.106;2022-10-31T01:14:09;100560.13;;;21.77;56.63
58690;BME280;44470;53.206;-6.106;2022-10-31T01:16:34;100530.75;;;21.76;56.12
58690;BME280;44470;53.206;-6.106;2022-10-31T01:19:00;100554.78;;;21.77;56.55
58690;BME280;44470;53.206;-6.106;2022-10-31T01:21:28;100552.16;;;21.76;56.14
58690;BME280;44470;53.206;-6.106;2022-10-31T01:24:09;100548.38;;;21.83;56.04
58690;BME280;44470;53.206;-6.106;2022-10-31T01:26:37;100546.81;;;21.76;56.36
58690;BME280;44470;53.206;-6.106;2022-10-31T01:29:05;100542.91;;;21.86;56.29
58690;BME280;44470;53.206;-6.106;2022-10-31T01:31:34;100536.72;;;21.84;56.18
58690;BME280;44470;53.206;-6.106;2022-10-31T01:34:01;100548.47;;;21.80;56.21
58690;BME280;44470;53.206;-6.106;2022-10-31T01:36:35;100528.88;;;21.78;56.40
58690;BME280;44470;53.206;-6.106;2022-10-31T01:39:05;100526.13;;;21.81;56.20
58690;BME280;44470;53.206;-6.106;2022-10-31T01:41:33;100513.47;;;21.85;55.97
58690;BME280;44470;53.206;-6.106;2022-10-31T01:44:02;100510.38;;;21.70;56.04
58690;BME280;44470;53.206;-6.106;2022-10-31T01:47:05;100507.25;;;21.84;56.33
58690;BME280;44470;53.206;-6.106;2022-10-31T01:54:40;100517.38;;;21.74;56.21
58690;BME280;44470;53.206;-6.106;2022-10-31T01:57:08;100490.81;;;21.67;56.14
58690;BME280;44470;53.206;-6.106;2022-10-31T01:59:39;100512.00;;;21.76;56.32
58690;BME280;44470;53.206;-6.106;2022-10-31T02:02:06;100503.94;;;21.76;56.36
58690;BME280;44470;53.206;-6.106;2022-10-31T02:04:32;100508.19;;;21.83;56.13
58690;BME280;44470;53.206;-6.106;2022-10-31T02:07:02;100498.59;;;21.76;55.99
58690;BME280;44470;53.206;-6.106;2022-10-31T02:09:31;100493.25;;;21.76;56.43
58690;BME280;44470;53.206;-6.106;2022-10-31T02:11:58;100491.47;;;21.75;56.22
58690;BME280;44470;53.206;-6.106;2022-10-31T02:14:26;100475.75;;;21.62;56.66
58690;BME280;44470;53.206;-6.106;2022-10-31T02:16:54;100498.34;;;21.84;56.21
58690;BME280;44470;53.206;-6.106;2022-10-31T02:19:45;100482.44;;;21.79;56.04
58690;BME280;44470;53.206;-6.106;2022-10-31T02:30:55;100484.19;;;21.80;55.96
58690;BME280;44470;53.206;-6.106;2022-10-31T02:33:29;100481.53;;;21.78;55.96
58690;BME280;44470;53.206;-6.106;2022-10-31T02:38:42;100479.09;;;21.71;56.58
58690;BME280;44470;53.206;-6.106;2022-10-31T02:46:51;100470.13;;;21.72;56.15
58690;BME280;44470;53.206;-6.106;2022-10-31T02:51:51;100472.78;;;21.73;56.14
58690;BME280;44470;53.206;-6.106;2022-10-31T02:54:23;100470.22;;;21.69;56.37
58690;BME280;44470;53.206;-6.106;2022-10-31T02:56:55;100448.13;;;21.60;56.46
58690;BME280;44470;53.206;-6.106;2022-10-31T02:59:23;100461.38;;;21.67;56.49
58690;BME280;44470;53.206;-6.106;2022-10-31T03:07:29;100439.81;;;21.71;56.36
58690;BME280;44470;53.206;-6.106;2022-10-31T03:15:14;100420.94;;;21.74;56.30
58690;BME280;44470;53.206;-6.106;2022-10-31T03:18:12;100426.09;;;21.81;56.35
58690;BME280;44470;53.206;-6.106;2022-10-31T03:20:51;100418.31;;;21.73;56.26
58690;BME280;44470;53.206;-6.106;2022-10-31T03:23:21;100420.91;;;21.76;56.18
58690;BME280;44470;53.206;-6.106;2022-10-31T03:25:50;100413.94;;;21.70;56.21
58690;BME280;44470;53.206;-6.106;2022-10-31T03:28:19;100426.31;;;21.74;56.29
58690;BME280;44470;53.206;-6.106;2022-10-31T03:30:49;100437.94;;;21.73;55.94
58690;BME280;44470;53.206;-6.106;2022-10-31T03:33:19;100423.59;;;21.76;56.17
58690;BME280;44470;53.206;-6.106;2022-10-31T03:35:48;100424.44;;;21.76;56.01
58690;BME280;44470;53.206;-6.106;2022-10-31T03:38:17;100435.97;;;21.80;55.82
58690;BME280;44470;53.206;-6.106;2022-10-31T03:40:46;100429.81;;;21.76;55.79
58690;BME280;44470;53.206;-6.106;2022-10-31T03:43:18;100423.75;;;21.70;56.15
58690;BME280;44470;53.206;-6.106;2022-10-31T03:45:46;100437.03;;;21.74;56.35
58690;BME280;44470;53.206;-6.106;2022-10-31T03:48:17;100417.44;;;21.72;56.27
58690;BME280;44470;53.206;-6.106;2022-10-31T03:53:33;100438.16;;;21.67;56.41
58690;BME280;44470;53.206;-6.106;2022-10-31T03:56:32;100437.22;;;21.68;56.46
58690;BME280;44470;53.206;-6.106;2022-10-31T03:59:09;100424.44;;;21.76;55.95
58690;BME280;44470;53.206;-6.106;2022-10-31T04:01:41;100430.63;;;21.78;56.11
58690;BME280;44470;53.206;-6.106;2022-10-31T04:04:10;100436.88;;;21.79;56.01
58690;BME280;44470;53.206;-6.106;2022-10-31T04:06:37;100430.78;;;21.74;56.06
58690;BME280;44470;53.206;-6.106;2022-10-31T04:09:05;100431.69;;;21.73;56.16
58690;BME280;44470;53.206;-6.106;2022-10-31T04:11:36;100435.13;;;21.78;56.27
58690;BME280;44470;53.206;-6.106;2022-10-31T04:14:24;100428.06;;;21.75;56.28
58690;BME280;44470;53.206;-6.106;2022-10-31T04:16:51;100423.66;;;21.73;56.17
58690;BME280;44470;53.206;-6.106;2022-10-31T04:19:21;100433.50;;;21.72;56.22
58690;BME280;44470;53.206;-6.106;2022-10-31T04:21:46;100423.75;;;21.70;56.19
58690;BME280;44470;53.206;-6.106;2022-10-31T04:24:12;100422.19;;;21.62;56.73
58690;BME280;44470;53.206;-6.106;2022-10-31T04:26:38;100416.66;;;21.69;56.39
58690;BME280;44470;53.206;-6.106;2022-10-31T04:29:04;100414.69;;;21.74;56.50
58690;BME280;44470;53.206;-6.106;2022-10-31T04:31:29;100404.91;;;21.73;56.07
58690;BME280;44470;53.206;-6.106;2022-10-31T04:33:56;100414.69;;;21.74;56.18
58690;BME280;44470;53.206;-6.106;2022-10-31T04:36:22;100407.59;;;21.73;56.41
58690;BME280;44470;53.206;-6.106;2022-10-31T04:38:47;100411.13;;;21.75;56.31
58690;BME280;44470;53.206;-6.106;2022-10-31T04:41:31;100404.91;;;21.73;56.20
58690;BME280;44470;53.206;-6.106;2022-10-31T04:44:00;100405.66;;;21.78;56.20
58690;BME280;44470;53.206;-6.106;2022-10-31T04:46:26;100406.66;;;21.74;56.14
58690;BME280;44470;53.206;-6.106;2022-10-31T04:48:53;100393.56;;;21.65;56.22
58690;BME280;44470;53.206;-6.106;2022-10-31T04:51:18;100398.84;;;21.68;56.34
58690;BME280;44470;53.206;-6.106;2022-10-31T04:53:44;100396.97;;;21.70;56.26
58690;BME280;44470;53.206;-6.106;2022-10-31T04:56:41;100380.16;;;21.66;56.43
58690;BME280;44470;53.206;-6.106;2022-10-31T04:59:15;100381.19;;;21.60;56.73
58690;BME280;44470;53.206;-6.106;2022-10-31T05:01:48;100377.50;;;21.65;56.50
58690;BME280;44470;53.206;-6.106;2022-10-31T05:04:17;100387.44;;;21.61;56.67
58690;BME280;44470;53.206;-6.106;2022-10-31T05:06:42;100387.25;;;21.67;56.62
58690;BME280;44470;53.206;-6.106;2022-10-31T05:09:08;100395.13;;;21.72;56.59
58690;BME280;44470;53.206;-6.106;2022-10-31T05:11:33;100397.09;;;21.67;56.43
58690;BME280;44470;53.206;-6.106;2022-10-31T05:14:11;100387.38;;;21.64;56.52
58690;BME280;44470;53.206;-6.106;2022-10-31T05:17:08;100401.25;;;21.77;56.16
58690;BME280;44470;53.206;-6.106;2022-10-31T05:19:52;100402.22;;;21.73;56.34
58690;BME280;44470;53.206;-6.106;2022-10-31T05:22:53;100385.34;;;21.71;56.02
58690;BME280;44470;53.206;-6.106;2022-10-31T05:25:20;100374.06;;;21.59;56.34
58690;BME280;44470;53.206;-6.106;2022-10-31T05:27:51;100375.75;;;21.63;56.36
58690;BME280;44470;53.206;-6.106;2022-10-31T05:30:23;100372.84;;;21.71;56.52
58690;BME280;44470;53.206;-6.106;2022-10-31T05:32:50;100368.78;;;21.58;56.54
58690;BME280;44470;53.206;-6.106;2022-10-31T05:35:38;100369.44;;;21.66;56.56
58690;BME280;44470;53.206;-6.106;2022-10-31T05:38:27;100358.00;;;21.59;56.41
58690;BME280;44470;53.206;-6.106;2022-10-31T05:40:55;100361.50;;;21.61;56.54
58690;BME280;44470;53.206;-6.106;2022-10-31T05:43:28;100370.38;;;21.65;56.51
58690;BME280;44470;53.206;-6.106;2022-10-31T05:45:55;100365.66;;;21.72;56.41
58690;BME280;44470;53.206;-6.106;2022-10-31T05:48:46;100374.03;;;21.61;56.24
58690;BME280;44470;53.206;-6.106;2022-10-31T05:51:44;100368.81;;;21.56;56.90
58690;BME280;44470;53.206;-6.106;2022-10-31T05:54:09;100379.44;;;21.59;56.41
58690;BME280;44470;53.206;-6.106;2022-10-31T05:56:37;100366.66;;;21.41;56.75
58690;BME280;44470;53.206;-6.106;2022-10-31T05:59:04;100383.00;;;21.60;56.56
58690;BME280;44470;53.206;-6.106;2022-10-31T06:01:29;100378.72;;;21.54;56.94
58690;BME280;44470;53.206;-6.106;2022-10-31T06:03:58;100385.72;;;21.58;56.41
58690;BME280;44470;53.206;-6.106;2022-10-31T06:06:23;100392.78;;;21.61;56.36
58690;BME280;44470;53.206;-6.106;2022-10-31T06:08:49;100396.44;;;21.58;56.90
58690;BME280;44470;53.206;-6.106;2022-10-31T06:11:18;100402.59;;;21.60;56.69
58690;BME280;44470;53.206;-6.106;2022-10-31T06:14:02;100389.59;;;21.49;56.76
58690;BME280;44470;53.206;-6.106;2022-10-31T06:16:38;100397.84;;;21.42;56.92
58690;BME280;44470;53.206;-6.106;2022-10-31T06:19:24;100390.75;;;21.41;57.21
58690;BME280;44470;53.206;-6.106;2022-10-31T06:21:49;100377.50;;;21.36;57.01
58690;BME280;44470;53.206;-6.106;2022-10-31T06:24:15;100389.03;;;21.38;57.29
58690;BME280;44470;53.206;-6.106;2022-10-31T06:26:52;100383.63;;;21.40;57.25
58690;BME280;44470;53.206;-6.106;2022-10-31T06:29:18;100386.25;;;21.41;57.48
58690;BME280;44470;53.206;-6.106;2022-10-31T06:32:03;100394.34;;;21.40;57.20
58690;BME280;44470;53.206;-6.106;2022-10-31T06:34:30;100380.03;;;21.41;57.48
58690;BME280;44470;53.206;-6.106;2022-10-31T06:36:56;100378.31;;;21.38;57.18
58690;BME280;44470;53.206;-6.106;2022-10-31T06:39:24;100379.25;;;21.37;57.60
58690;BME280;44470;53.206;-6.106;2022-10-31T06:41:49;100370.97;;;21.45;57.20
58690;BME280;44470;53.206;-6.106;2022-10-31T06:44:18;100367.47;;;21.43;57.24
58690;BME280;44470;53.206;-6.106;2022-10-31T06:47:18;100363.81;;;21.45;57.15
58690;BME280;44470;53.206;-6.106;2022-10-31T06:50:00;100372.53;;;21.52;57.18
58690;BME280;44470;53.206;-6.106;2022-10-31T06:52:26;100365.41;;;21.51;56.92
58690;BME280;44470;53.206;-6.106;2022-10-31T06:54:52;100372.53;;;21.52;57.00
58690;BME280;44470;53.206;-6.106;2022-10-31T06:57:18;100362.97;;;21.43;56.95
58690;BME280;44470;53.206;-6.106;2022-10-31T06:59:43;100367.72;;;21.35;57.37
58690;BME280;44470;53.206;-6.106;2022-10-31T07:02:24;100362.16;;;21.41;57.25
58690;BME280;44470;53.206;-6.106;2022-10-31T07:04:50;100378.19;;;21.43;57.18
58690;BME280;44470;53.206;-6.106;2022-10-31T07:07:16;100371.13;;;21.40;57.41
58690;BME280;44470;53.206;-6.106;2022-10-31T07:09:43;100360.56;;;21.36;57.45
58690;BME280;44470;53.206;-6.106;2022-10-31T07:12:10;100386.34;;;21.38;57.56
58690;BME280;44470;53.206;-6.106;2022-10-31T07:14:39;100368.69;;;21.32;57.58
58690;BME280;44470;53.206;-6.106;2022-10-31T07:17:05;100383.03;;;21.58;56.66
58690;BME280;44470;53.206;-6.106;2022-10-31T07:19:34;100379.44;;;21.59;56.81
58690;BME280;44470;53.206;-6.106;2022-10-31T07:22:00;100379.63;;;21.53;56.95
58690;BME280;44470;53.206;-6.106;2022-10-31T07:24:28;100386.84;;;21.51;57.09
58690;BME280;44470;53.206;-6.106;2022-10-31T07:27:13;100399.00;;;21.61;56.80
58690;BME280;44470;53.206;-6.106;2022-10-31T07:29:38;100391.16;;;21.55;56.99
58690;BME280;44470;53.206;-6.106;2022-10-31T07:32:04;100392.81;;;21.59;56.96
58690;BME280;44470;53.206;-6.106;2022-10-31T07:34:31;100391.25;;;21.54;57.15
58690;BME280;44470;53.206;-6.106;2022-10-31T07:37:16;100390.25;;;21.56;56.85
58690;BME280;44470;53.206;-6.106;2022-10-31T07:39:41;100404.88;;;21.44;56.97
58690;BME280;44470;53.206;-6.106;2022-10-31T07:42:07;100395.59;;;21.28;57.15
58690;BME280;44470;53.206;-6.106;2022-10-31T07:44:33;100415.97;;;21.33;57.31
58690;BME280;44470;53.206;-6.106;2022-10-31T07:47:19;100410.69;;;21.30;57.57
58690;BME280;44470;53.206;-6.106;2022-10-31T07:50:12;100411.97;;;21.47;57.08
58690;BME280;44470;53.206;-6.106;2022-10-31T07:53:17;100400.38;;;21.46;56.80
58690;BME280;44470;53.206;-6.106;2022-10-31T07:55:54;100395.69;;;21.53;56.89
58690;BME280;44470;53.206;-6.106;2022-10-31T07:58:24;100404.97;;;21.43;57.38
58690;BME280;44470;53.206;-6.106;2022-10-31T08:00:50;100411.34;;;21.39;57.11
58690;BME280;44470;53.206;-6.106;2022-10-31T08:03:26;100397.75;;;21.45;57.35
58690;BME280;44470;53.206;-6.106;2022-10-31T08:06:30;100409.25;;;21.48;57.15
58690;BME280;44470;53.206;-6.106;2022-10-31T08:09:09;100414.13;;;21.36;57.24
58690;BME280;44470;53.206;-6.106;2022-10-31T08:11:34;100412.06;;;21.44;57.17
58690;BME280;44470;53.206;-6.106;2022-10-31T08:14:01;100421.22;;;21.37;57.32
58690;BME280;44470;53.206;-6.106;2022-10-31T08:16:27;100410.91;;;21.53;57.24
58690;BME280;44470;53.206;-6.106;2022-10-31T08:18:57;100411.78;;;21.53;57.00
58690;BME280;44470;53.206;-6.106;2022-10-31T08:21:22;100410.84;;;21.54;56.66
58690;BME280;44470;53.206;-6.106;2022-10-31T08:23:48;100408.63;;;21.69;56.26
58690;BME280;44470;53.206;-6.106;2022-10-31T08:26:14;100407.94;;;21.62;56.88
58690;BME280;44470;53.206;-6.106;2022-10-31T08:28:39;100420.34;;;21.65;56.69
58690;BME280;44470;53.206;-6.106;2022-10-31T08:31:05;100418.16;;;21.49;56.68
58690;BME280;44470;53.206;-6.106;2022-10-31T08:33:40;100418.00;;;21.54;56.81
58690;BME280;44470;53.206;-6.106;2022-10-31T08:36:17;100421.44;;;21.57;56.89
58690;BME280;44470;53.206;-6.106;2022-10-31T08:39:06;100412.22;;;21.68;56.41
58690;BME280;44470;53.206;-6.106;2022-10-31T08:41:31;100418.47;;;21.68;56.37
58690;BME280;44470;53.206;-6.106;2022-10-31T08:43:58;100401.84;;;21.57;56.27
58690;BME280;44470;53.206;-6.106;2022-10-31T08:46:24;100414.06;;;21.66;56.56
58690;BME280;44470;53.206;-6.106;2022-10-31T08:48:50;100408.84;;;21.61;56.73
58690;BME280;44470;53.206;-6.106;2022-10-31T08:51:17;100407.25;;;21.55;56.95
58690;BME280;44470;53.206;-6.106;2022-10-31T08:53:43;100421.34;;;21.60;56.87
58690;BME280;44470;53.206;-6.106;2022-10-31T08:56:27;100416.88;;;21.61;56.75
58690;BME280;44470;53.206;-6.106;2022-10-31T08:58:53;100429.22;;;21.67;56.46
58690;BME280;44470;53.206;-6.106;2022-10-31T09:01:26;100417.81;;;21.60;56.36
58690;BME280;44470;53.206;-6.106;2022-10-31T09:03:51;100424.56;;;21.73;56.44
58690;BME280;44470;53.206;-6.106;2022-10-31T09:06:17;100409.53;;;21.68;56.58
58690;BME280;44470;53.206;-6.106;2022-10-31T09:08:42;100391.03;;;21.60;56.21
58690;BME280;44470;53.206;-6.106;2022-10-31T09:11:08;100415.63;;;21.73;56.23
58690;BME280;44470;53.206;-6.106;2022-10-31T09:13:57;100402.44;;;21.67;56.32
58690;BME280;44470;53.206;-6.106;2022-10-31T09:16:25;100410.47;;;21.67;56.48
58690;BME280;44470;53.206;-6.106;2022-10-31T09:18:50;100413.28;;;21.62;56.61
58690;BME280;44470;53.206;-6.106;2022-10-31T09:21:16;100412.34;;;21.63;56.37
58690;BME280;44470;53.206;-6.106;2022-10-31T09:23:42;100409.88;;;21.57;56.57
58690;BME280;44470;53.206;-6.106;2022-10-31T09:26:08;100411.66;;;21.56;56.43
58690;BME280;44470;53.206;-6.106;2022-10-31T09:28:36;100409.81;;;21.58;56.61
58690;BME280;44470;53.206;-6.106;2022-10-31T09:31:07;100398.94;;;21.65;56.66
58690;BME280;44470;53.206;-6.106;2022-10-31T09:34:04;100395.56;;;21.58;56.43
58690;BME280;44470;53.206;-6.106;2022-10-31T09:36:37;100394.47;;;21.65;56.42
58690;BME280;44470;53.206;-6.106;2022-10-31T09:39:04;100400.75;;;21.62;56.48
58690;BME280;44470;53.206;-6.106;2022-10-31T09:44:24;100398.84;;;21.68;56.62
58690;BME280;44470;53.206;-6.106;2022-10-31T09:47:07;100393.38;;;21.71;56.38
58690;BME280;44470;53.206;-6.106;2022-10-31T09:52:33;100400.66;;;21.67;56.45
58690;BME280;44470;53.206;-6.106;2022-10-31T09:55:13;100410.28;;;21.73;56.31
58690;BME280;44470;53.206;-6.106;2022-10-31T09:57:40;100406.41;;;21.82;56.08
58690;BME280;44470;53.206;-6.106;2022-10-31T10:00:10;100409.34;;;21.74;56.40
58690;BME280;44470;53.206;-6.106;2022-10-31T10:02:47;100410.91;;;21.81;56.31
58690;BME280;44470;53.206;-6.106;2022-10-31T10:05:21;100411.03;;;21.78;56.04
58690;BME280;44470;53.206;-6.106;2022-10-31T10:08:21;100422.66;;;21.77;56.06
58690;BME280;44470;53.206;-6.106;2022-10-31T10:14:14;100422.56;;;21.80;56.11
58690;BME280;44470;53.206;-6.106;2022-10-31T10:25:03;100426.22;;;21.77;56.32
58690;BME280;44470;53.206;-6.106;2022-10-31T10:27:55;100415.59;;;21.74;56.35
58690;BME280;44470;53.206;-6.106;2022-10-31T10:30:44;100410.22;;;21.74;56.12
58690;BME280;44470;53.206;-6.106;2022-10-31T10:33:19;100400.41;;;21.75;55.98
58690;BME280;44470;53.206;-6.106;2022-10-31T10:35:58;100407.31;;;21.82;56.07
58690;BME280;44470;53.206;-6.106;2022-10-31T10:41:02;100403.94;;;21.75;56.14
58690;BME280;44470;53.206;-6.106;2022-10-31T10:43:35;100409.16;;;21.80;56.02
58690;BME280;44470;53.206;-6.106;2022-10-31T10:54:06;100398.72;;;21.71;56.25
58690;BME280;44470;53.206;-6.106;2022-10-31T10:56:55;100412.88;;;21.76;56.33
58690;BME280;44470;53.206;-6.106;2022-10-31T10:59:23;100401.13;;;21.80;55.93
58690;BME280;44470;53.206;-6.106;2022-10-31T11:01:52;100409.00;;;21.85;55.98
58690;BME280;44470;53.206;-6.106;2022-10-31T11:04:35;100395.78;;;21.80;56.29
58690;BME280;44470;53.206;-6.106;2022-10-31T11:07:11;100403.97;;;21.74;56.34
58690;BME280;44470;53.206;-6.106;2022-10-31T11:09:37;100405.50;;;21.83;55.99
58690;BME280;44470;53.206;-6.106;2022-10-31T11:12:28;100399.22;;;21.84;56.04
58690;BME280;44470;53.206;-6.106;2022-10-31T11:15:00;100389.50;;;21.81;56.22
58690;BME280;44470;53.206;-6.106;2022-10-31T11:17:32;100397.56;;;21.80;56.14
58690;BME280;44470;53.206;-6.106;2022-10-31T11:20:06;100373.63;;;21.75;55.89
58690;BME280;44470;53.206;-6.106;2022-10-31T11:22:47;100357.97;;;21.61;56.39
58690;BME280;44470;53.206;-6.106;2022-10-31T11:27:58;100370.25;;;21.68;56.24
58690;BME280;44470;53.206;-6.106;2022-10-31T11:30:23;100375.63;;;21.68;56.58
58690;BME280;44470;53.206;-6.106;2022-10-31T11:32:50;100380.63;;;21.79;56.50
58690;BME280;44470;53.206;-6.106;2022-10-31T11:35:18;100363.81;;;21.74;56.43
58690;BME280;44470;53.206;-6.106;2022-10-31T11:37:46;100381.56;;;21.78;56.52
58690;BME280;44470;53.206;-6.106;2022-10-31T11:40:21;100383.91;;;21.87;56.06
58690;BME280;44470;53.206;-6.106;2022-10-31T11:42:48;100362.81;;;21.78;56.24
58690;BME280;44470;53.206;-6.106;2022-10-31T11:45:35;100375.16;;;21.82;56.22
58690;BME280;44470;53.206;-6.106;2022-10-31T11:48:02;100377.78;;;21.84;56.10
58690;BME280;44470;53.206;-6.106;2022-10-31T11:50:41;100369.81;;;21.82;56.15
58690;BME280;44470;53.206;-6.106;2022-10-31T11:53:16;100362.50;;;21.87;56.03
58690;BME280;44470;53.206;-6.106;2022-10-31T11:55:44;100370.56;;;21.86;56.33
58690;BME280;44470;53.206;-6.106;2022-10-31T11:58:25;100373.53;;;21.78;56.46
58690;BME280;44470;53.206;-6.106;2022-10-31T12:00:55;100370.09;;;21.73;56.77
58690;BME280;44470;53.206;-6.106;2022-10-31T12:08:35;100353.84;;;21.79;56.63
58690;BME280;44470;53.206;-6.106;2022-10-31T12:22:02;100324.19;;;21.84;56.39
58690;BME280;44470;53.206;-6.106;2022-10-31T12:24:49;100304.69;;;21.80;56.58
58690;BME280;44470;53.206;-6.106;2022-10-31T12:27:22;100306.44;;;21.81;56.34
58690;BME280;44470;53.206;-6.106;2022-10-31T12:40:59;100330.56;;;21.81;56.67
58690;BME280;44470;53.206;-6.106;2022-10-31T12:46:39;100317.38;;;21.75;56.75
58690;BME280;44470;53.206;-6.106;2022-10-31T12:52:04;100315.44;;;21.78;56.57
58690;BME280;44470;53.206;-6.106;2022-10-31T12:57:20;100292.59;;;21.68;56.65
58690;BME280;44470;53.206;-6.106;2022-10-31T12:59:55;100312.66;;;21.82;56.45
58690;BME280;44470;53.206;-6.106;2022-10-31T13:02:28;100300.97;;;21.84;56.32
58690;BME280;44470;53.206;-6.106;2022-10-31T13:07:46;100302.94;;;21.79;56.61
58690;BME280;44470;53.206;-6.106;2022-10-31T13:10:20;100286.91;;;21.77;56.65
58690;BME280;44470;53.206;-6.106;2022-10-31T13:12:51;100272.56;;;21.80;56.30
58690;BME280;44470;53.206;-6.106;2022-10-31T13:15:21;100273.25;;;21.85;56.21
58690;BME280;44470;53.206;-6.106;2022-10-31T13:17:59;100269.88;;;21.80;56.25
58690;BME280;44470;53.206;-6.106;2022-10-31T13:20:41;100284.09;;;21.82;56.44
58690;BME280;44470;53.206;-6.106;2022-10-31T13:23:24;100276.19;;;21.77;56.48
58690;BME280;44470;53.206;-6.106;2022-10-31T13:25:54;100266.53;;;21.73;56.64
58690;BME280;44470;53.206;-6.106;2022-10-31T13:28:40;100255.13;;;21.67;56.48
58690;BME280;44470;53.206;-6.106;2022-10-31T13:31:12;100268.31;;;21.73;56.62
58690;BME280;44470;53.206;-6.106;2022-10-31T13:33:56;100261.84;;;21.80;56.58
58690;BME280;44470;53.206;-6.106;2022-10-31T13:36:31;100257.34;;;21.81;56.60
58690;BME280;44470;53.206;-6.106;2022-10-31T13:39:06;100256.47;;;21.80;56.16
58690;BME280;44470;53.206;-6.106;2022-10-31T13:41:47;100252.81;;;21.83;56.63
58690;BME280;44470;53.206;-6.106;2022-10-31T13:44:23;100236.25;;;21.71;56.59
58690;BME280;44470;53.206;-6.106;2022-10-31T13:46:50;100218.47;;;21.69;56.52
58690;BME280;44470;53.206;-6.106;2022-10-31T13:49:36;100230.63;;;21.79;56.54
58690;BME280;44470;53.206;-6.106;2022-10-31T13:54:42;100234.22;;;21.78;56.63
58690;BME280;44470;53.206;-6.106;2022-10-31T13:59:55;100230.63;;;21.79;56.40
58690;BME280;44470;53.206;-6.106;2022-10-31T14:02:27;100216.50;;;21.74;56.23
58690;BME280;44470;53.206;-6.106;2022-10-31T14:04:59;100217.50;;;21.71;56.66
58690;BME280;44470;53.206;-6.106;2022-10-31T14:07:27;100218.16;;;21.78;56.37
58690;BME280;44470;53.206;-6.106;2022-10-31T14:12:39;100202.34;;;21.70;56.53
58690;BME280;44470;53.206;-6.106;2022-10-31T14:15:18;100209.31;;;21.76;56.58
58690;BME280;44470;53.206;-6.106;2022-10-31T14:18:01;100200.34;;;21.77;56.49
58690;BME280;44470;53.206;-6.106;2022-10-31T14:20:43;100202.09;;;21.78;56.12
58690;BME280;44470;53.206;-6.106;2022-10-31T14:25:53;100194.97;;;21.77;56.46
58690;BME280;44470;53.206;-6.106;2022-10-31T14:28:32;100192.22;;;21.78;56.43
58690;BME280;44470;53.206;-6.106;2022-10-31T14:30:59;100187.66;;;21.82;56.20
58690;BME280;44470;53.206;-6.106;2022-10-31T14:33:27;100180.44;;;21.84;56.15
58690;BME280;44470;53.206;-6.106;2022-10-31T14:36:04;100165.44;;;21.78;56.02
58690;BME280;44470;53.206;-6.106;2022-10-31T14:41:25;100176.94;;;21.82;56.17
58690;BME280;44470;53.206;-6.106;2022-10-31T14:52:35;100181.63;;;21.75;56.43
58690;BME280;44470;53.206;-6.106;2022-10-31T14:55:05;100170.66;;;21.83;56.50
58690;BME280;44470;53.206;-6.106;2022-10-31T14:57:36;100167.47;;;21.72;56.37
58690;BME280;44470;53.206;-6.106;2022-10-31T15:00:12;100146.84;;;21.74;56.19
58690;BME280;44470;53.206;-6.106;2022-10-31T15:02:49;100154.16;;;21.70;56.54
58690;BME280;44470;53.206;-6.106;2022-10-31T15:05:17;100161.03;;;21.77;56.67
58690;BME280;44470;53.206;-6.106;2022-10-31T15:07:54;100156.81;;;21.70;56.54
58690;BME280;44470;53.206;-6.106;2022-10-31T15:10:47;100156.66;;;21.75;56.61
58690;BME280;44470;53.206;-6.106;2022-10-31T15:13:20;100158.50;;;21.73;56.55
58690;BME280;44470;53.206;-6.106;2022-10-31T15:15:48;100163.59;;;21.81;56.25